sensor_id;sensor_type;location;lat;lon;timestamp;P1;durP1;ratioP1;P2;durP2;ratioP2
18048;SDS011;9149;47.002;8.604;2023-07-24T00:01:20;16.50;;;6.85;;
18048;SDS011;9149;47.002;8.604;2023-07-24T00:03:48;17.45;;;6.65;;
18048;SDS011;9149;47.002;8.604;2023-07-24T00:06:16;16.30;;;6.68;;
18048;SDS011;9149;47.002;8.604;2023-07-24T00:08:43;16.77;;;6.65;;
18048;SDS011;9149;47.002;8.604;2023-07-24T00:11:11;13.90;;;6.00;;
18048;SDS011;9149;47.002;8.604;2023-07-24T00:13:38;19.73;;;6.55;;
18048;SDS011;9149;47.002;8.604;2023-07-24T00:16:06;14.63;;;6.13;;
18048;SDS011;9149;47.002;8.604;2023-07-24T00:18:35;15.98;;;7.43;;
18048;SDS011;9149;47.002;8.604;2023-07-24T00:21:03;17.73;;;6.35;;
18048;SDS011;9149;47.002;8.604;2023-07-24T00:23:31;15.00;;;6.20;;
18048;SDS011;9149;47.002;8.604;2023-07-24T00:25:58;14.95;;;6.65;;
18048;SDS011;9149;47.002;8.604;2023-07-24T00:28:26;16.50;;;6.50;;
18048;SDS011;9149;47.002;8.604;2023-07-24T00:30:54;15.63;;;6.25;;
18048;SDS011;9149;47.002;8.604;2023-07-24T00:33:22;15.75;;;6.38;;
18048;SDS011;9149;47.002;8.604;2023-07-24T00:35:51;16.88;;;6.55;;
18048;SDS011;9149;47.002;8.604;2023-07-24T00:38:22;20.77;;;6.38;;
18048;SDS011;9149;47.002;8.604;2023-07-24T00:40:49;18.45;;;7.00;;
18048;SDS011;9149;47.002;8.604;2023-07-24T00:43:17;16.15;;;6.00;;
18048;SDS011;9149;47.002;8.604;2023-07-24T00:45:45;15.27;;;6.55;;
18048;SDS011;9149;47.002;8.604;2023-07-24T00:48:14;16.77;;;6.13;;
18048;SDS011;9149;47.002;8.604;2023-07-24T00:50:42;14.75;;;6.28;;
18048;SDS011;9149;47.002;8.604;2023-07-24T00:53:11;17.85;;;6.93;;
18048;SDS011;9149;47.002;8.604;2023-07-24T00:55:39;14.57;;;6.45;;
18048;SDS011;9149;47.002;8.604;2023-07-24T00:58:07;15.27;;;6.22;;
18048;SDS011;9149;47.002;8.604;2023-07-24T01:00:38;15.50;;;6.78;;
18048;SDS011;9149;47.002;8.604;2023-07-24T01:03:05;14.15;;;6.60;;
18048;SDS011;9149;47.002;8.604;2023-07-24T01:05:33;15.05;;;6.10;;
18048;SDS011;9149;47.002;8.604;2023-07-24T01:08:01;18.75;;;6.72;;
18048;SDS011;9149;47.002;8.604;2023-07-24T01:10:31;17.55;;;6.75;;
18048;SDS011;9149;47.002;8.604;2023-07-24T01:12:59;14.32;;;6.90;;
18048;SDS011;9149;47.002;8.604;2023-07-24T01:15:29;15.88;;;6.30;;
18048;SDS011;9149;47.002;8.604;2023-07-24T01:17:59;16.13;;;6.65;;
18048;SDS011;9149;47.002;8.604;2023-07-24T01:20:28;18.10;;;7.07;;
18048;SDS011;9149;47.002;8.604;2023-07-24T01:23:00;23.30;;;7.03;;
18048;SDS011;9149;47.002;8.604;2023-07-24T01:25:33;15.00;;;6.63;;
18048;SDS011;9149;47.002;8.604;2023-07-24T01:28:07;16.08;;;6.40;;
18048;SDS011;9149;47.002;8.604;2023-07-24T01:30:35;16.17;;;6.75;;
18048;SDS011;9149;47.002;8.604;2023-07-24T01:33:03;12.80;;;6.30;;
18048;SDS011;9149;47.002;8.604;2023-07-24T01:35:31;17.55;;;6.22;;
18048;SDS011;9149;47.002;8.604;2023-07-24T01:37:59;21.50;;;7.32;;
18048;SDS011;9149;47.002;8.604;2023-07-24T01:40:28;15.88;;;6.68;;
18048;SDS011;9149;47.002;8.604;2023-07-24T01:42:57;13.45;;;6.13;;
18048;SDS011;9149;47.002;8.604;2023-07-24T01:45:27;18.70;;;6.47;;
18048;SDS011;9149;47.002;8.604;2023-07-24T01:47:55;16.77;;;6.45;;
18048;SDS011;9149;47.002;8.604;2023-07-24T01:50:22;12.77;;;6.18;;
18048;SDS011;9149;47.002;8.604;2023-07-24T01:52:50;15.60;;;5.90;;
18048;SDS011;9149;47.002;8.604;2023-07-24T01:55:18;14.88;;;6.15;;
18048;SDS011;9149;47.002;8.604;2023-07-24T01:57:45;17.25;;;6.38;;
18048;SDS011;9149;47.002;8.604;2023-07-24T02:00:13;17.98;;;6.30;;
18048;SDS011;9149;47.002;8.604;2023-07-24T02:02:42;11.43;;;5.88;;
18048;SDS011;9149;47.002;8.604;2023-07-24T02:05:10;16.83;;;6.75;;
18048;SDS011;9149;47.002;8.604;2023-07-24T02:07:38;15.80;;;5.95;;
18048;SDS011;9149;47.002;8.604;2023-07-24T02:10:06;16.35;;;7.03;;
18048;SDS011;9149;47.002;8.604;2023-07-24T02:12:34;16.00;;;6.13;;
18048;SDS011;9149;47.002;8.604;2023-07-24T02:15:01;14.45;;;5.65;;
18048;SDS011;9149;47.002;8.604;2023-07-24T02:17:31;15.30;;;6.07;;
18048;SDS011;9149;47.002;8.604;2023-07-24T02:20:00;15.02;;;6.22;;
18048;SDS011;9149;47.002;8.604;2023-07-24T02:22:40;17.75;;;6.13;;
18048;SDS011;9149;47.002;8.604;2023-07-24T02:25:08;14.77;;;6.25;;
18048;SDS011;9149;47.002;8.604;2023-07-24T02:27:36;17.35;;;6.57;;
18048;SDS011;9149;47.002;8.604;2023-07-24T02:30:22;16.02;;;6.25;;
18048;SDS011;9149;47.002;8.604;2023-07-24T02:32:50;18.17;;;6.00;;
18048;SDS011;9149;47.002;8.604;2023-07-24T02:35:19;14.43;;;5.68;;
18048;SDS011;9149;47.002;8.604;2023-07-24T02:37:47;16.42;;;6.30;;
18048;SDS011;9149;47.002;8.604;2023-07-24T02:40:14;16.10;;;6.20;;
18048;SDS011;9149;47.002;8.604;2023-07-24T02:42:42;14.57;;;6.40;;
18048;SDS011;9149;47.002;8.604;2023-07-24T02:45:11;15.65;;;6.20;;
18048;SDS011;9149;47.002;8.604;2023-07-24T02:47:38;13.07;;;5.40;;
18048;SDS011;9149;47.002;8.604;2023-07-24T02:50:06;15.63;;;6.28;;
18048;SDS011;9149;47.002;8.604;2023-07-24T02:52:35;12.88;;;5.93;;
18048;SDS011;9149;47.002;8.604;2023-07-24T02:55:03;14.73;;;6.18;;
18048;SDS011;9149;47.002;8.604;2023-07-24T02:57:31;15.23;;;6.35;;
18048;SDS011;9149;47.002;8.604;2023-07-24T02:59:58;17.83;;;6.13;;
18048;SDS011;9149;47.002;8.604;2023-07-24T03:02:26;15.35;;;5.93;;
18048;SDS011;9149;47.002;8.604;2023-07-24T03:04:54;15.77;;;6.03;;
18048;SDS011;9149;47.002;8.604;2023-07-24T03:07:21;14.20;;;6.50;;
18048;SDS011;9149;47.002;8.604;2023-07-24T03:09:51;15.60;;;6.40;;
18048;SDS011;9149;47.002;8.604;2023-07-24T03:12:19;18.85;;;6.68;;
18048;SDS011;9149;47.002;8.604;2023-07-24T03:15:05;14.20;;;6.57;;
18048;SDS011;9149;47.002;8.604;2023-07-24T03:17:33;16.60;;;6.45;;
18048;SDS011;9149;47.002;8.604;2023-07-24T03:20:07;13.82;;;6.10;;
18048;SDS011;9149;47.002;8.604;2023-07-24T03:22:35;15.50;;;6.25;;
18048;SDS011;9149;47.002;8.604;2023-07-24T03:25:05;17.30;;;6.53;;
18048;SDS011;9149;47.002;8.604;2023-07-24T03:27:32;14.18;;;5.78;;
18048;SDS011;9149;47.002;8.604;2023-07-24T03:30:00;17.08;;;6.72;;
18048;SDS011;9149;47.002;8.604;2023-07-24T03:32:30;15.55;;;6.32;;
18048;SDS011;9149;47.002;8.604;2023-07-24T03:34:57;15.48;;;6.57;;
18048;SDS011;9149;47.002;8.604;2023-07-24T03:37:25;20.58;;;6.47;;
18048;SDS011;9149;47.002;8.604;2023-07-24T03:39:53;12.48;;;5.47;;
18048;SDS011;9149;47.002;8.604;2023-07-24T03:42:25;14.48;;;6.15;;
18048;SDS011;9149;47.002;8.604;2023-07-24T03:44:54;17.20;;;6.70;;
18048;SDS011;9149;47.002;8.604;2023-07-24T03:47:22;16.15;;;5.95;;
18048;SDS011;9149;47.002;8.604;2023-07-24T03:49:49;16.23;;;6.43;;
18048;SDS011;9149;47.002;8.604;2023-07-24T03:52:17;14.93;;;6.57;;
18048;SDS011;9149;47.002;8.604;2023-07-24T03:54:45;12.77;;;5.88;;
18048;SDS011;9149;47.002;8.604;2023-07-24T03:57:31;16.67;;;6.55;;
18048;SDS011;9149;47.002;8.604;2023-07-24T03:59:59;13.98;;;6.47;;
18048;SDS011;9149;47.002;8.604;2023-07-24T04:02:26;13.93;;;6.30;;
18048;SDS011;9149;47.002;8.604;2023-07-24T04:04:54;15.20;;;6.38;;
18048;SDS011;9149;47.002;8.604;2023-07-24T04:07:22;18.02;;;7.22;;
18048;SDS011;9149;47.002;8.604;2023-07-24T04:09:49;15.07;;;6.07;;
18048;SDS011;9149;47.002;8.604;2023-07-24T04:12:17;19.33;;;6.53;;
18048;SDS011;9149;47.002;8.604;2023-07-24T04:14:46;15.40;;;6.03;;
18048;SDS011;9149;47.002;8.604;2023-07-24T04:17:15;16.92;;;6.63;;
18048;SDS011;9149;47.002;8.604;2023-07-24T04:19:43;16.40;;;6.78;;
18048;SDS011;9149;47.002;8.604;2023-07-24T04:22:10;15.20;;;6.65;;
18048;SDS011;9149;47.002;8.604;2023-07-24T04:24:38;17.02;;;7.03;;
18048;SDS011;9149;47.002;8.604;2023-07-24T04:27:06;15.63;;;6.78;;
18048;SDS011;9149;47.002;8.604;2023-07-24T04:29:33;16.30;;;6.72;;
18048;SDS011;9149;47.002;8.604;2023-07-24T04:32:02;17.88;;;7.05;;
18048;SDS011;9149;47.002;8.604;2023-07-24T04:34:30;18.08;;;7.15;;
18048;SDS011;9149;47.002;8.604;2023-07-24T04:36:59;19.55;;;7.78;;
18048;SDS011;9149;47.002;8.604;2023-07-24T04:39:27;15.88;;;6.03;;
18048;SDS011;9149;47.002;8.604;2023-07-24T04:41:54;17.45;;;7.25;;
18048;SDS011;9149;47.002;8.604;2023-07-24T04:44:22;15.20;;;6.40;;
18048;SDS011;9149;47.002;8.604;2023-07-24T04:46:50;15.32;;;6.47;;
18048;SDS011;9149;47.002;8.604;2023-07-24T04:49:19;16.67;;;6.72;;
18048;SDS011;9149;47.002;8.604;2023-07-24T04:51:46;14.15;;;5.88;;
18048;SDS011;9149;47.002;8.604;2023-07-24T04:54:14;17.88;;;6.55;;
18048;SDS011;9149;47.002;8.604;2023-07-24T04:56:41;15.27;;;6.45;;
18048;SDS011;9149;47.002;8.604;2023-07-24T04:59:09;14.80;;;5.63;;
18048;SDS011;9149;47.002;8.604;2023-07-24T05:01:37;14.13;;;5.60;;
18048;SDS011;9149;47.002;8.604;2023-07-24T05:04:04;15.90;;;5.70;;
18048;SDS011;9149;47.002;8.604;2023-07-24T05:06:33;15.05;;;5.32;;
18048;SDS011;9149;47.002;8.604;2023-07-24T05:09:03;13.60;;;5.15;;
18048;SDS011;9149;47.002;8.604;2023-07-24T05:11:31;14.23;;;5.25;;
18048;SDS011;9149;47.002;8.604;2023-07-24T05:13:58;13.88;;;5.40;;
18048;SDS011;9149;47.002;8.604;2023-07-24T05:16:26;14.65;;;6.13;;
18048;SDS011;9149;47.002;8.604;2023-07-24T05:18:54;13.75;;;5.82;;
18048;SDS011;9149;47.002;8.604;2023-07-24T05:21:22;15.73;;;5.85;;
18048;SDS011;9149;47.002;8.604;2023-07-24T05:23:51;13.68;;;6.20;;
18048;SDS011;9149;47.002;8.604;2023-07-24T05:26:19;15.18;;;6.68;;
18048;SDS011;9149;47.002;8.604;2023-07-24T05:28:48;15.68;;;6.45;;
18048;SDS011;9149;47.002;8.604;2023-07-24T05:31:16;18.02;;;6.15;;
18048;SDS011;9149;47.002;8.604;2023-07-24T05:33:43;16.52;;;6.35;;
18048;SDS011;9149;47.002;8.604;2023-07-24T05:36:11;17.08;;;6.00;;
18048;SDS011;9149;47.002;8.604;2023-07-24T05:38:39;12.07;;;5.82;;
18048;SDS011;9149;47.002;8.604;2023-07-24T05:41:08;15.25;;;5.97;;
18048;SDS011;9149;47.002;8.604;2023-07-24T05:43:35;18.17;;;5.88;;
18048;SDS011;9149;47.002;8.604;2023-07-24T05:46:03;11.40;;;5.63;;
18048;SDS011;9149;47.002;8.604;2023-07-24T05:48:31;15.85;;;6.18;;
18048;SDS011;9149;47.002;8.604;2023-07-24T05:50:58;17.65;;;5.47;;
18048;SDS011;9149;47.002;8.604;2023-07-24T05:53:26;11.52;;;5.38;;
18048;SDS011;9149;47.002;8.604;2023-07-24T05:55:56;11.70;;;5.97;;
18048;SDS011;9149;47.002;8.604;2023-07-24T05:58:25;12.63;;;5.00;;
18048;SDS011;9149;47.002;8.604;2023-07-24T06:00:53;15.20;;;5.68;;
18048;SDS011;9149;47.002;8.604;2023-07-24T06:03:21;18.30;;;6.38;;
18048;SDS011;9149;47.002;8.604;2023-07-24T06:05:50;14.90;;;6.20;;
18048;SDS011;9149;47.002;8.604;2023-07-24T06:08:19;13.05;;;5.70;;
18048;SDS011;9149;47.002;8.604;2023-07-24T06:10:47;19.70;;;6.40;;
18048;SDS011;9149;47.002;8.604;2023-07-24T06:13:15;12.82;;;5.93;;
18048;SDS011;9149;47.002;8.604;2023-07-24T06:15:44;14.43;;;5.32;;
18048;SDS011;9149;47.002;8.604;2023-07-24T06:18:14;16.85;;;6.20;;
18048;SDS011;9149;47.002;8.604;2023-07-24T06:20:42;15.23;;;5.97;;
18048;SDS011;9149;47.002;8.604;2023-07-24T06:23:09;13.05;;;5.45;;
18048;SDS011;9149;47.002;8.604;2023-07-24T06:25:37;14.50;;;5.75;;
18048;SDS011;9149;47.002;8.604;2023-07-24T06:28:04;16.67;;;6.30;;
18048;SDS011;9149;47.002;8.604;2023-07-24T06:30:32;13.05;;;6.32;;
18048;SDS011;9149;47.002;8.604;2023-07-24T06:33:01;14.15;;;6.53;;
18048;SDS011;9149;47.002;8.604;2023-07-24T06:35:29;13.15;;;5.50;;
18048;SDS011;9149;47.002;8.604;2023-07-24T06:37:57;15.18;;;5.65;;
18048;SDS011;9149;47.002;8.604;2023-07-24T06:40:24;15.48;;;6.07;;
18048;SDS011;9149;47.002;8.604;2023-07-24T06:42:52;11.30;;;5.53;;
18048;SDS011;9149;47.002;8.604;2023-07-24T06:45:20;15.00;;;6.07;;
18048;SDS011;9149;47.002;8.604;2023-07-24T06:47:48;12.70;;;5.50;;
18048;SDS011;9149;47.002;8.604;2023-07-24T06:50:17;12.55;;;5.15;;
18048;SDS011;9149;47.002;8.604;2023-07-24T06:52:45;14.95;;;6.07;;
18048;SDS011;9149;47.002;8.604;2023-07-24T06:55:12;15.00;;;5.78;;
18048;SDS011;9149;47.002;8.604;2023-07-24T06:57:40;14.70;;;5.05;;
18048;SDS011;9149;47.002;8.604;2023-07-24T07:00:07;12.45;;;5.03;;
18048;SDS011;9149;47.002;8.604;2023-07-24T07:02:38;12.75;;;5.32;;
18048;SDS011;9149;47.002;8.604;2023-07-24T07:05:06;14.00;;;5.80;;
18048;SDS011;9149;47.002;8.604;2023-07-24T07:07:35;16.58;;;5.50;;
18048;SDS011;9149;47.002;8.604;2023-07-24T07:10:03;12.55;;;5.28;;
18048;SDS011;9149;47.002;8.604;2023-07-24T07:12:31;14.73;;;5.60;;
18048;SDS011;9149;47.002;8.604;2023-07-24T07:14:59;15.57;;;5.55;;
18048;SDS011;9149;47.002;8.604;2023-07-24T07:17:27;12.38;;;5.75;;
18048;SDS011;9149;47.002;8.604;2023-07-24T07:19:54;13.38;;;5.57;;
18048;SDS011;9149;47.002;8.604;2023-07-24T07:22:23;12.52;;;5.95;;
18048;SDS011;9149;47.002;8.604;2023-07-24T07:24:52;14.55;;;6.57;;
18048;SDS011;9149;47.002;8.604;2023-07-24T07:27:20;12.98;;;5.15;;
18048;SDS011;9149;47.002;8.604;2023-07-24T07:29:48;13.52;;;5.43;;
18048;SDS011;9149;47.002;8.604;2023-07-24T07:32:15;13.38;;;5.05;;
18048;SDS011;9149;47.002;8.604;2023-07-24T07:34:43;11.82;;;4.97;;
18048;SDS011;9149;47.002;8.604;2023-07-24T07:37:11;12.35;;;5.30;;
18048;SDS011;9149;47.002;8.604;2023-07-24T07:39:39;12.48;;;5.47;;
18048;SDS011;9149;47.002;8.604;2023-07-24T07:42:08;13.38;;;5.00;;
18048;SDS011;9149;47.002;8.604;2023-07-24T07:44:44;13.20;;;5.30;;
18048;SDS011;9149;47.002;8.604;2023-07-24T07:47:12;11.77;;;5.28;;
18048;SDS011;9149;47.002;8.604;2023-07-24T07:49:39;12.43;;;5.07;;
18048;SDS011;9149;47.002;8.604;2023-07-24T07:52:08;12.75;;;4.75;;
18048;SDS011;9149;47.002;8.604;2023-07-24T07:54:36;14.73;;;5.63;;
18048;SDS011;9149;47.002;8.604;2023-07-24T07:57:04;13.38;;;5.57;;
18048;SDS011;9149;47.002;8.604;2023-07-24T07:59:33;11.10;;;5.47;;
18048;SDS011;9149;47.002;8.604;2023-07-24T08:02:01;12.05;;;5.15;;
18048;SDS011;9149;47.002;8.604;2023-07-24T08:04:29;11.45;;;5.25;;
18048;SDS011;9149;47.002;8.604;2023-07-24T08:07:15;12.23;;;5.68;;
18048;SDS011;9149;47.002;8.604;2023-07-24T08:10:00;14.43;;;6.45;;
18048;SDS011;9149;47.002;8.604;2023-07-24T08:12:28;16.10;;;5.45;;
18048;SDS011;9149;47.002;8.604;2023-07-24T08:14:56;18.55;;;5.03;;
18048;SDS011;9149;47.002;8.604;2023-07-24T08:17:24;8.45;;;3.83;;
18048;SDS011;9149;47.002;8.604;2023-07-24T08:19:52;7.45;;;3.13;;
18048;SDS011;9149;47.002;8.604;2023-07-24T08:22:19;10.63;;;4.28;;
18048;SDS011;9149;47.002;8.604;2023-07-24T08:24:49;7.32;;;3.70;;
18048;SDS011;9149;47.002;8.604;2023-07-24T08:27:20;6.78;;;3.28;;
18048;SDS011;9149;47.002;8.604;2023-07-24T08:29:50;10.27;;;4.40;;
18048;SDS011;9149;47.002;8.604;2023-07-24T08:32:19;12.63;;;4.95;;
18048;SDS011;9149;47.002;8.604;2023-07-24T08:34:47;8.93;;;4.22;;
18048;SDS011;9149;47.002;8.604;2023-07-24T08:37:15;9.80;;;4.05;;
18048;SDS011;9149;47.002;8.604;2023-07-24T08:39:42;7.78;;;3.53;;
18048;SDS011;9149;47.002;8.604;2023-07-24T08:42:11;12.52;;;5.32;;
18048;SDS011;9149;47.002;8.604;2023-07-24T08:44:39;14.35;;;5.30;;
18048;SDS011;9149;47.002;8.604;2023-07-24T08:47:09;11.27;;;4.70;;
18048;SDS011;9149;47.002;8.604;2023-07-24T08:49:39;13.65;;;5.70;;
18048;SDS011;9149;47.002;8.604;2023-07-24T08:52:07;12.00;;;5.07;;
18048;SDS011;9149;47.002;8.604;2023-07-24T08:54:40;11.02;;;5.13;;
18048;SDS011;9149;47.002;8.604;2023-07-24T08:57:07;17.60;;;5.95;;
18048;SDS011;9149;47.002;8.604;2023-07-24T08:59:35;12.00;;;5.25;;
18048;SDS011;9149;47.002;8.604;2023-07-24T09:02:03;15.73;;;4.50;;
18048;SDS011;9149;47.002;8.604;2023-07-24T09:04:31;10.35;;;4.60;;
18048;SDS011;9149;47.002;8.604;2023-07-24T09:07:00;11.43;;;4.80;;
18048;SDS011;9149;47.002;8.604;2023-07-24T09:09:29;13.55;;;5.60;;
18048;SDS011;9149;47.002;8.604;2023-07-24T09:11:56;11.60;;;4.88;;
18048;SDS011;9149;47.002;8.604;2023-07-24T09:14:26;9.85;;;4.43;;
18048;SDS011;9149;47.002;8.604;2023-07-24T09:17:05;9.80;;;4.07;;
18048;SDS011;9149;47.002;8.604;2023-07-24T09:19:33;11.18;;;3.45;;
18048;SDS011;9149;47.002;8.604;2023-07-24T09:22:10;7.18;;;3.38;;
18048;SDS011;9149;47.002;8.604;2023-07-24T09:24:48;5.10;;;2.50;;
18048;SDS011;9149;47.002;8.604;2023-07-24T09:27:16;5.32;;;2.35;;
18048;SDS011;9149;47.002;8.604;2023-07-24T09:29:44;4.32;;;2.15;;
18048;SDS011;9149;47.002;8.604;2023-07-24T09:32:18;4.60;;;2.10;;
18048;SDS011;9149;47.002;8.604;2023-07-24T09:34:46;4.88;;;1.92;;
18048;SDS011;9149;47.002;8.604;2023-07-24T09:37:23;3.78;;;1.70;;
18048;SDS011;9149;47.002;8.604;2023-07-24T09:39:51;5.20;;;1.80;;
18048;SDS011;9149;47.002;8.604;2023-07-24T09:42:27;3.55;;;1.60;;
18048;SDS011;9149;47.002;8.604;2023-07-24T09:44:54;6.07;;;2.70;;
18048;SDS011;9149;47.002;8.604;2023-07-24T09:47:22;12.05;;;3.60;;
18048;SDS011;9149;47.002;8.604;2023-07-24T09:50:10;9.73;;;3.75;;
18048;SDS011;9149;47.002;8.604;2023-07-24T09:52:39;8.65;;;3.78;;
18048;SDS011;9149;47.002;8.604;2023-07-24T09:55:10;9.88;;;3.78;;
18048;SDS011;9149;47.002;8.604;2023-07-24T09:57:38;7.82;;;3.72;;
18048;SDS011;9149;47.002;8.604;2023-07-24T10:00:06;9.30;;;4.07;;
18048;SDS011;9149;47.002;8.604;2023-07-24T10:02:35;10.85;;;4.30;;
18048;SDS011;9149;47.002;8.604;2023-07-24T10:05:02;10.57;;;4.30;;
18048;SDS011;9149;47.002;8.604;2023-07-24T10:07:31;13.73;;;4.63;;
18048;SDS011;9149;47.002;8.604;2023-07-24T10:10:00;10.68;;;4.53;;
18048;SDS011;9149;47.002;8.604;2023-07-24T10:12:28;10.25;;;4.38;;
18048;SDS011;9149;47.002;8.604;2023-07-24T10:14:57;8.52;;;4.30;;
18048;SDS011;9149;47.002;8.604;2023-07-24T10:17:34;12.77;;;5.22;;
18048;SDS011;9149;47.002;8.604;2023-07-24T10:20:03;11.30;;;4.53;;
18048;SDS011;9149;47.002;8.604;2023-07-24T10:22:31;9.85;;;4.43;;
18048;SDS011;9149;47.002;8.604;2023-07-24T10:25:00;12.63;;;4.45;;
18048;SDS011;9149;47.002;8.604;2023-07-24T10:27:28;11.73;;;4.72;;
18048;SDS011;9149;47.002;8.604;2023-07-24T10:29:58;9.73;;;4.65;;
18048;SDS011;9149;47.002;8.604;2023-07-24T10:32:25;11.45;;;5.53;;
18048;SDS011;9149;47.002;8.604;2023-07-24T10:34:58;11.32;;;4.97;;
18048;SDS011;9149;47.002;8.604;2023-07-24T10:37:33;12.07;;;6.05;;
18048;SDS011;9149;47.002;8.604;2023-07-24T10:40:02;13.52;;;5.53;;
18048;SDS011;9149;47.002;8.604;2023-07-24T10:42:30;11.90;;;5.18;;
18048;SDS011;9149;47.002;8.604;2023-07-24T10:45:05;9.27;;;4.68;;
18048;SDS011;9149;47.002;8.604;2023-07-24T10:47:33;11.18;;;5.32;;
18048;SDS011;9149;47.002;8.604;2023-07-24T10:50:01;9.70;;;4.53;;
18048;SDS011;9149;47.002;8.604;2023-07-24T10:52:30;11.40;;;5.28;;
18048;SDS011;9149;47.002;8.604;2023-07-24T10:54:59;8.98;;;4.68;;
18048;SDS011;9149;47.002;8.604;2023-07-24T10:57:29;10.63;;;5.15;;
18048;SDS011;9149;47.002;8.604;2023-07-24T10:59:56;10.43;;;4.97;;
18048;SDS011;9149;47.002;8.604;2023-07-24T11:02:24;9.35;;;4.55;;
18048;SDS011;9149;47.002;8.604;2023-07-24T11:04:54;12.52;;;5.07;;
18048;SDS011;9149;47.002;8.604;2023-07-24T11:07:21;11.38;;;5.10;;
18048;SDS011;9149;47.002;8.604;2023-07-24T11:09:49;10.38;;;4.75;;
18048;SDS011;9149;47.002;8.604;2023-07-24T11:12:17;12.35;;;4.70;;
18048;SDS011;9149;47.002;8.604;2023-07-24T11:14:47;10.85;;;5.13;;
18048;SDS011;9149;47.002;8.604;2023-07-24T11:17:15;11.48;;;5.20;;
18048;SDS011;9149;47.002;8.604;2023-07-24T11:19:42;12.27;;;5.20;;
18048;SDS011;9149;47.002;8.604;2023-07-24T11:22:10;13.77;;;5.95;;
18048;SDS011;9149;47.002;8.604;2023-07-24T11:24:41;10.68;;;5.20;;
18048;SDS011;9149;47.002;8.604;2023-07-24T11:27:10;13.48;;;5.65;;
18048;SDS011;9149;47.002;8.604;2023-07-24T11:29:39;11.10;;;5.38;;
18048;SDS011;9149;47.002;8.604;2023-07-24T11:32:08;11.43;;;4.93;;
18048;SDS011;9149;47.002;8.604;2023-07-24T11:34:36;10.43;;;5.13;;
18048;SDS011;9149;47.002;8.604;2023-07-24T11:37:04;8.93;;;4.78;;
18048;SDS011;9149;47.002;8.604;2023-07-24T11:39:32;10.88;;;4.63;;
18048;SDS011;9149;47.002;8.604;2023-07-24T11:42:00;13.15;;;5.35;;
18048;SDS011;9149;47.002;8.604;2023-07-24T11:44:28;12.80;;;6.15;;
18048;SDS011;9149;47.002;8.604;2023-07-24T11:47:03;13.10;;;6.13;;
18048;SDS011;9149;47.002;8.604;2023-07-24T11:49:33;13.52;;;5.18;;
18048;SDS011;9149;47.002;8.604;2023-07-24T11:52:01;12.02;;;5.10;;
18048;SDS011;9149;47.002;8.604;2023-07-24T11:54:29;11.13;;;5.45;;
18048;SDS011;9149;47.002;8.604;2023-07-24T11:56:56;12.35;;;5.18;;
18048;SDS011;9149;47.002;8.604;2023-07-24T11:59:24;13.32;;;5.82;;
18048;SDS011;9149;47.002;8.604;2023-07-24T12:01:52;12.55;;;5.10;;
18048;SDS011;9149;47.002;8.604;2023-07-24T12:04:20;14.90;;;4.88;;
18048;SDS011;9149;47.002;8.604;2023-07-24T12:06:49;14.07;;;6.03;;
18048;SDS011;9149;47.002;8.604;2023-07-24T12:09:16;41.38;;;16.77;;
18048;SDS011;9149;47.002;8.604;2023-07-24T12:11:44;15.88;;;6.95;;
18048;SDS011;9149;47.002;8.604;2023-07-24T12:14:13;9.50;;;4.72;;
18048;SDS011;9149;47.002;8.604;2023-07-24T12:16:41;12.20;;;4.68;;
18048;SDS011;9149;47.002;8.604;2023-07-24T12:19:08;13.02;;;4.75;;
18048;SDS011;9149;47.002;8.604;2023-07-24T12:21:36;8.45;;;4.55;;
18048;SDS011;9149;47.002;8.604;2023-07-24T12:24:05;8.55;;;4.32;;
18048;SDS011;9149;47.002;8.604;2023-07-24T12:26:33;7.72;;;4.47;;
18048;SDS011;9149;47.002;8.604;2023-07-24T12:29:00;7.75;;;4.07;;
18048;SDS011;9149;47.002;8.604;2023-07-24T12:31:28;9.65;;;4.22;;
18048;SDS011;9149;47.002;8.604;2023-07-24T12:33:56;10.30;;;4.28;;
18048;SDS011;9149;47.002;8.604;2023-07-24T12:39:12;12.27;;;4.60;;
18048;SDS011;9149;47.002;8.604;2023-07-24T12:41:40;7.47;;;3.97;;
18048;SDS011;9149;47.002;8.604;2023-07-24T12:44:07;10.20;;;4.32;;
18048;SDS011;9149;47.002;8.604;2023-07-24T12:46:35;8.85;;;4.20;;
18048;SDS011;9149;47.002;8.604;2023-07-24T12:49:03;6.72;;;4.07;;
18048;SDS011;9149;47.002;8.604;2023-07-24T12:51:30;9.90;;;4.70;;
18048;SDS011;9149;47.002;8.604;2023-07-24T12:53:58;9.35;;;4.50;;
18048;SDS011;9149;47.002;8.604;2023-07-24T12:56:47;16.70;;;4.50;;
18048;SDS011;9149;47.002;8.604;2023-07-24T12:59:15;7.13;;;3.90;;
18048;SDS011;9149;47.002;8.604;2023-07-24T13:01:43;9.48;;;4.45;;
18048;SDS011;9149;47.002;8.604;2023-07-24T13:04:10;10.57;;;4.32;;
18048;SDS011;9149;47.002;8.604;2023-07-24T13:09:25;12.57;;;4.25;;
18048;SDS011;9149;47.002;8.604;2023-07-24T13:11:55;8.32;;;3.90;;
18048;SDS011;9149;47.002;8.604;2023-07-24T13:14:22;11.05;;;4.28;;
18048;SDS011;9149;47.002;8.604;2023-07-24T13:16:50;9.18;;;4.35;;
18048;SDS011;9149;47.002;8.604;2023-07-24T13:19:18;11.50;;;4.57;;
18048;SDS011;9149;47.002;8.604;2023-07-24T13:21:46;10.50;;;4.53;;
18048;SDS011;9149;47.002;8.604;2023-07-24T13:24:14;7.72;;;4.13;;
18048;SDS011;9149;47.002;8.604;2023-07-24T13:26:42;9.02;;;4.18;;
18048;SDS011;9149;47.002;8.604;2023-07-24T13:29:11;9.00;;;4.15;;
18048;SDS011;9149;47.002;8.604;2023-07-24T13:31:39;7.30;;;3.72;;
18048;SDS011;9149;47.002;8.604;2023-07-24T13:34:07;6.38;;;3.65;;
18048;SDS011;9149;47.002;8.604;2023-07-24T13:36:35;12.30;;;4.32;;
18048;SDS011;9149;47.002;8.604;2023-07-24T13:39:02;8.20;;;3.92;;
18048;SDS011;9149;47.002;8.604;2023-07-24T13:41:30;6.38;;;3.42;;
18048;SDS011;9149;47.002;8.604;2023-07-24T13:43:59;6.40;;;3.45;;
18048;SDS011;9149;47.002;8.604;2023-07-24T13:46:28;7.35;;;3.60;;
18048;SDS011;9149;47.002;8.604;2023-07-24T13:48:55;5.85;;;3.45;;
18048;SDS011;9149;47.002;8.604;2023-07-24T13:51:23;9.20;;;3.75;;
18048;SDS011;9149;47.002;8.604;2023-07-24T13:53:51;6.53;;;3.35;;
18048;SDS011;9149;47.002;8.604;2023-07-24T13:56:20;7.90;;;3.65;;
18048;SDS011;9149;47.002;8.604;2023-07-24T13:58:49;11.52;;;3.58;;
18048;SDS011;9149;47.002;8.604;2023-07-24T14:01:17;9.30;;;3.47;;
18048;SDS011;9149;47.002;8.604;2023-07-24T14:03:46;7.20;;;3.33;;
18048;SDS011;9149;47.002;8.604;2023-07-24T14:06:13;6.57;;;3.50;;
18048;SDS011;9149;47.002;8.604;2023-07-24T14:08:41;11.10;;;4.35;;
18048;SDS011;9149;47.002;8.604;2023-07-24T14:11:09;11.25;;;4.25;;
18048;SDS011;9149;47.002;8.604;2023-07-24T14:13:36;10.82;;;4.38;;
18048;SDS011;9149;47.002;8.604;2023-07-24T14:16:04;9.52;;;4.60;;
18048;SDS011;9149;47.002;8.604;2023-07-24T14:18:32;9.30;;;3.65;;
18048;SDS011;9149;47.002;8.604;2023-07-24T14:21:01;7.47;;;4.05;;
18048;SDS011;9149;47.002;8.604;2023-07-24T14:23:29;8.80;;;3.83;;
18048;SDS011;9149;47.002;8.604;2023-07-24T14:25:57;8.80;;;4.00;;
18048;SDS011;9149;47.002;8.604;2023-07-24T14:28:24;10.20;;;3.58;;
18048;SDS011;9149;47.002;8.604;2023-07-24T14:30:52;9.45;;;3.53;;
18048;SDS011;9149;47.002;8.604;2023-07-24T14:33:20;10.27;;;4.07;;
18048;SDS011;9149;47.002;8.604;2023-07-24T14:35:48;14.65;;;5.03;;
18048;SDS011;9149;47.002;8.604;2023-07-24T14:38:17;11.88;;;4.50;;
18048;SDS011;9149;47.002;8.604;2023-07-24T14:40:45;10.75;;;4.63;;
18048;SDS011;9149;47.002;8.604;2023-07-24T14:43:12;12.27;;;4.40;;
18048;SDS011;9149;47.002;8.604;2023-07-24T14:45:40;11.18;;;5.05;;
18048;SDS011;9149;47.002;8.604;2023-07-24T14:48:08;10.93;;;4.68;;
18048;SDS011;9149;47.002;8.604;2023-07-24T14:50:54;6.78;;;3.97;;
18048;SDS011;9149;47.002;8.604;2023-07-24T14:53:23;8.30;;;3.88;;
18048;SDS011;9149;47.002;8.604;2023-07-24T14:55:50;9.52;;;3.50;;
18048;SDS011;9149;47.002;8.604;2023-07-24T14:58:18;8.07;;;3.63;;
18048;SDS011;9149;47.002;8.604;2023-07-24T15:00:46;9.77;;;3.70;;
18048;SDS011;9149;47.002;8.604;2023-07-24T15:03:14;8.95;;;3.90;;
18048;SDS011;9149;47.002;8.604;2023-07-24T15:05:42;8.73;;;3.58;;